Time;durP1;ratioP1;P1;durP2;ratioP2;P2;SDS_P1;SDS_P2;PMS_P1;PMS_P2;Temp;Humidity;BMP_temperature;BMP_pressure;BME280_temperature;BME280_humidity;BME280_pressure;Samples;Min_cycle;Max_cycle;Signal;HPM_P1;HPM_P2
2024/01/01 00:00:40;;;;;;;65.38;32.10;;;;;;;1.52;nan;100290.72;4981799;28;20026;-66
2024/01/01 00:03:07;;;;;;;64.57;30.35;;;;;;;1.60;nan;100298.47;4989723;28;20037;-66
2024/01/01 00:05:33;;;;;;;64.82;31.80;;;;;;;1.64;nan;100294.56;5002978;28;20041;-65
2024/01/01 00:07:58;;;;;;;64.88;32.10;;;;;;;1.66;nan;100306.41;5003683;28;20033;-64
2024/01/01 00:10:24;;;;;;;64.63;31.25;;;;;;;1.65;nan;100304.78;4997146;28;20038;-64
2024/01/01 00:12:50;;;;;;;62.38;30.02;;;;;;;1.59;nan;100281.28;5000974;28;20034;-64
2024/01/01 00:15:16;;;;;;;62.67;29.70;;;;;;;1.61;nan;100279.34;4999639;28;20021;-64
2024/01/01 00:17:41;;;;;;;54.13;28.17;;;;;;;1.68;nan;100285.47;4998905;28;20030;-66
2024/01/01 00:20:10;;;;;;;56.42;28.38;;;;;;;1.39;nan;100245.38;4987906;28;20806;-65
2024/01/01 00:22:35;;;;;;;55.03;27.42;;;;;;;1.61;nan;100285.34;5001605;28;20045;-64
2024/01/01 00:25:01;;;;;;;63.50;28.65;;;;;;;1.70;nan;100297.28;4999813;28;20037;-65
2024/01/01 00:27:26;;;;;;;53.22;27.33;;;;;;;1.73;nan;100303.13;4999064;28;20026;-65
2024/01/01 00:29:52;;;;;;;55.15;27.33;;;;;;;1.73;nan;100297.94;4988282;28;20029;-65
2024/01/01 00:32:17;;;;;;;52.80;25.98;;;;;;;1.79;nan;100307.63;4997658;28;20058;-65
2024/01/01 00:34:44;;;;;;;55.58;25.80;;;;;;;1.77;nan;100306.97;4997194;28;20021;-66
2024/01/01 00:37:10;;;;;;;50.90;23.92;;;;;;;1.48;nan;100272.91;5000818;28;20044;-64
2024/01/01 00:39:36;;;;;;;42.80;21.30;;;;;;;1.65;nan;100297.00;4997683;28;20033;-65
2024/01/01 00:42:01;;;;;;;43.33;21.23;;;;;;;1.68;nan;100303.63;4999545;28;20050;-65
2024/01/01 00:44:27;;;;;;;43.20;21.83;;;;;;;1.67;nan;100300.22;4998654;28;20022;-65
2024/01/01 00:46:53;;;;;;;46.80;23.83;;;;;;;1.55;nan;100286.00;4984738;28;20022;-65
2024/01/01 00:49:18;;;;;;;45.20;21.85;;;;;;;1.61;nan;100295.72;4995814;28;20026;-65
2024/01/01 00:51:43;;;;;;;48.92;22.10;;;;;;;1.62;nan;100306.91;4999760;28;20038;-65
2024/01/01 00:54:10;;;;;;;47.88;23.00;;;;;;;1.63;nan;100303.34;4999511;28;20158;-64
2024/01/01 00:56:36;;;;;;;46.80;22.83;;;;;;;1.61;nan;100297.50;4998793;28;20018;-64
2024/01/01 00:59:01;;;;;;;48.40;23.50;;;;;;;1.62;nan;100299.91;4999515;28;20048;-64
2024/01/01 01:01:26;;;;;;;46.28;23.45;;;;;;;1.65;nan;100298.75;4982400;28;20038;-65
2024/01/01 01:03:52;;;;;;;43.53;22.60;;;;;;;1.68;nan;100308.84;4982314;28;20026;-65
2024/01/01 01:06:19;;;;;;;44.45;22.88;;;;;;;1.60;nan;100295.88;4990023;28;20518;-64
2024/01/01 01:08:44;;;;;;;47.33;22.73;;;;;;;1.61;nan;100289.72;5000126;28;20030;-65
2024/01/01 01:11:10;;;;;;;48.17;23.15;;;;;;;1.66;nan;100292.63;5003211;28;20032;-64
2024/01/01 01:13:35;;;;;;;48.05;22.40;;;;;;;1.51;nan;100268.34;5001882;28;20472;-65
2024/01/01 01:16:01;;;;;;;47.33;22.70;;;;;;;1.66;nan;100283.03;5003266;28;20025;-66
2024/01/01 01:18:26;;;;;;;48.78;23.63;;;;;;;1.70;nan;100284.31;4998089;28;20076;-65
2024/01/01 01:20:51;;;;;;;47.67;23.83;;;;;;;1.67;nan;100289.03;5000559;28;20706;-65
2024/01/01 01:23:17;;;;;;;115.63;53.67;;;;;;;1.65;nan;100281.44;4984160;28;20056;-65
2024/01/01 01:25:44;;;;;;;69.38;34.67;;;;;;;1.61;nan;100277.53;4999605;28;20075;-65
2024/01/01 01:28:09;;;;;;;72.50;29.98;;;;;;;1.65;nan;100281.44;4998007;28;20033;-64
2024/01/01 01:30:35;;;;;;;55.53;27.52;;;;;;;1.59;nan;100263.13;4998172;28;20031;-65
2024/01/01 01:33:00;;;;;;;53.63;25.40;;;;;;;1.61;nan;100263.75;4997260;28;20448;-64
2024/01/01 01:35:25;;;;;;;49.08;25.92;;;;;;;1.65;nan;100268.44;4997614;28;20041;-65
2024/01/01 01:37:51;;;;;;;55.92;26.23;;;;;;;1.61;nan;100253.38;4998278;28;20096;-65
2024/01/01 01:40:16;;;;;;;53.13;26.45;;;;;;;1.55;nan;100238.47;4996892;28;20040;-64
2024/01/01 01:42:46;;;;;;;57.92;27.42;;;;;;;1.66;nan;100256.28;4996926;28;20018;-66
2024/01/01 01:45:13;;;;;;;54.10;26.58;;;;;;;1.64;nan;100250.44;5000109;28;20027;-67
2024/01/01 01:47:39;;;;;;;60.25;26.90;;;;;;;1.63;nan;100239.25;5000371;28;20034;-65
2024/01/01 01:50:06;;;;;;;56.45;27.33;;;;;;;1.58;nan;100233.78;4998336;28;20026;-65
2024/01/01 01:52:34;;;;;;;53.67;26.20;;;;;;;1.56;nan;100240.13;4995080;28;20017;-66
2024/01/01 01:55:00;;;;;;;48.42;25.10;;;;;;;1.56;nan;100238.31;4996690;28;20033;-64
2024/01/01 01:57:27;;;;;;;48.60;24.70;;;;;;;1.52;nan;100234.44;4998350;28;20041;-67
2024/01/01 01:59:52;;;;;;;51.33;23.80;;;;;;;1.48;nan;100233.16;5001069;28;20387;-65
2024/01/01 02:02:20;;;;;;;46.10;22.88;;;;;;;1.43;nan;100223.28;4997990;28;20030;-65
2024/01/01 02:04:45;;;;;;;47.33;23.67;;;;;;;1.56;nan;100243.50;4985959;28;20651;-65
2024/01/01 02:07:11;;;;;;;47.15;23.10;;;;;;;1.49;nan;100224.41;5000355;28;20140;-65
2024/01/01 02:09:38;;;;;;;46.33;23.85;;;;;;;1.48;nan;100221.00;4996450;28;20026;-65
2024/01/01 02:12:04;;;;;;;50.13;24.23;;;;;;;1.57;nan;100236.53;4997441;28;20034;-65
2024/01/01 02:14:30;;;;;;;44.17;23.55;;;;;;;1.68;nan;100236.16;4997922;28;20392;-64
2024/01/01 02:16:55;;;;;;;45.63;22.75;;;;;;;1.56;nan;100222.75;4980966;28;20033;-64
2024/01/01 02:19:23;;;;;;;42.33;21.98;;;;;;;1.63;nan;100230.66;4999880;28;20057;-65
2024/01/01 02:21:51;;;;;;;44.65;21.80;;;;;;;1.49;nan;100214.81;4996808;28;20095;-65
2024/01/01 02:24:16;;;;;;;44.70;20.60;;;;;;;1.54;nan;100219.50;4998738;28;20029;-64
2024/01/01 02:26:43;;;;;;;44.47;21.25;;;;;;;1.48;nan;100207.19;4984692;28;20026;-67
2024/01/01 02:29:09;;;;;;;47.78;20.30;;;;;;;1.51;nan;100219.03;4980782;28;20117;-63
2024/01/01 02:31:34;;;;;;;44.95;22.02;;;;;;;1.52;nan;100208.50;4998325;28;20065;-64
2024/01/01 02:34:00;;;;;;;48.92;21.77;;;;;;;1.48;nan;100202.00;4997492;28;20437;-65
2024/01/01 02:36:26;;;;;;;40.97;21.85;;;;;;;1.50;nan;100215.63;5000575;28;20018;-66
2024/01/01 02:38:51;;;;;;;45.28;22.55;;;;;;;1.52;nan;100208.50;4998139;28;20034;-64
2024/01/01 02:41:17;;;;;;;41.55;20.85;;;;;;;1.55;nan;100213.31;4996447;28;20053;-65
2024/01/01 02:43:42;;;;;;;48.95;22.65;;;;;;;1.56;nan;100212.38;5001757;28;20680;-65
2024/01/01 02:46:08;;;;;;;45.95;21.20;;;;;;;1.58;nan;100209.59;5005495;28;20030;-66
2024/01/01 02:48:33;;;;;;;39.03;20.67;;;;;;;1.35;nan;100168.84;4983180;28;21051;-65
2024/01/01 02:50:58;;;;;;;46.83;23.17;;;;;;;1.60;nan;100207.63;5003696;28;20038;-66
2024/01/01 02:53:24;;;;;;;50.88;23.05;;;;;;;1.27;nan;100148.94;4997990;28;20492;-66
2024/01/01 02:55:49;;;;;;;49.03;23.13;;;;;;;1.56;nan;100190.81;5001745;28;20088;-66
2024/01/01 02:58:14;;;;;;;50.53;23.95;;;;;;;1.41;nan;100178.56;5000586;28;20034;-65
2024/01/01 03:00:41;;;;;;;54.85;23.83;;;;;;;1.40;nan;100179.53;4996854;28;20034;-65
2024/01/01 03:03:06;;;;;;;49.30;23.02;;;;;;;1.43;nan;100181.75;5002297;28;20077;-64
2024/01/01 03:05:31;;;;;;;44.97;24.02;;;;;;;1.36;nan;100156.69;5002364;28;20488;-65
2024/01/01 03:07:57;;;;;;;48.35;23.48;;;;;;;1.48;nan;100171.72;4999871;28;20484;-64
2024/01/01 03:10:23;;;;;;;45.22;21.95;;;;;;;1.49;nan;100165.53;5008421;28;20053;-64
2024/01/01 03:12:48;;;;;;;51.92;22.33;;;;;;;1.50;nan;100168.94;5005357;28;20109;-64
2024/01/01 03:15:14;;;;;;;46.42;21.90;;;;;;;1.59;nan;100182.66;5001862;28;20076;-64
2024/01/01 03:17:40;;;;;;;41.08;20.63;;;;;;;1.51;nan;100162.78;5000792;28;20030;-66
2024/01/01 03:20:06;;;;;;;39.78;20.35;;;;;;;1.54;nan;100165.00;4999373;28;20030;-64
2024/01/01 03:22:31;;;;;;;38.83;20.08;;;;;;;1.61;nan;100173.72;5003582;28;20037;-65
2024/01/01 03:24:57;;;;;;;40.58;20.58;;;;;;;1.62;nan;100172.75;5000951;28;20034;-65
2024/01/01 03:27:22;;;;;;;47.05;20.95;;;;;;;1.57;nan;100159.47;5000634;28;20399;-64
2024/01/01 03:29:49;;;;;;;36.90;19.85;;;;;;;1.52;nan;100155.78;4986958;28;20047;-65
2024/01/01 03:32:14;;;;;;;46.47;20.75;;;;;;;1.57;nan;100163.88;4998569;28;20081;-65
2024/01/01 03:34:40;;;;;;;36.72;19.65;;;;;;;1.59;nan;100159.31;4999728;28;20058;-65
2024/01/01 03:37:05;;;;;;;41.30;20.38;;;;;;;1.46;nan;100147.72;4999696;28;20030;-64
2024/01/01 03:39:31;;;;;;;39.20;19.70;;;;;;;1.43;nan;100127.28;5001167;28;20014;-66
2024/01/01 03:41:56;;;;;;;40.22;19.08;;;;;;;1.48;nan;100140.56;4999842;28;20126;-65
2024/01/01 03:44:22;;;;;;;38.67;18.95;;;;;;;1.35;nan;100121.34;4999623;28;20030;-64
2024/01/01 03:46:47;;;;;;;32.95;18.55;;;;;;;1.35;nan;100111.78;4988403;28;20129;-65
2024/01/01 03:49:13;;;;;;;40.20;19.13;;;;;;;1.43;nan;100127.28;4999021;28;20097;-65
2024/01/01 03:51:38;;;;;;;37.47;18.23;;;;;;;1.52;nan;100138.44;5001542;28;20537;-65
2024/01/01 03:54:04;;;;;;;34.17;17.58;;;;;;;1.55;nan;100126.91;4998872;28;20034;-64
2024/01/01 03:56:29;;;;;;;32.35;17.02;;;;;;;1.57;nan;100122.34;4997085;28;20023;-64
2024/01/01 03:58:55;;;;;;;38.00;17.65;;;;;;;1.43;nan;100111.72;4998151;28;20029;-65
2024/01/01 04:01:24;;;;;;;34.30;17.20;;;;;;;1.47;nan;100109.59;5001244;28;20026;-65
2024/01/01 04:03:49;;;;;;;;;;;;;;;1.62;nan;100127.81;5000523;28;20029;-65
2024/01/01 04:06:15;;;;;;;34.35;16.35;;;;;;;1.56;nan;100118.16;4999856;28;19918;-65
2024/01/01 04:08:40;;;;;;;29.02;16.65;;;;;;;1.57;nan;100124.94;5000708;28;20473;-66
2024/01/01 04:11:06;;;;;;;32.60;16.63;;;;;;;1.56;nan;100118.94;5001212;28;20030;-65
2024/01/01 04:13:31;;;;;;;30.75;16.35;;;;;;;1.43;nan;100092.75;5000247;28;20034;-65
2024/01/01 04:15:57;;;;;;;29.95;16.08;;;;;;;1.58;nan;100106.59;5000201;28;20037;-64
2024/01/01 04:18:23;;;;;;;29.83;15.30;;;;;;;1.64;nan;100110.28;5003526;28;20018;-64
2024/01/01 04:20:49;;;;;;;27.13;14.32;;;;;;;1.68;nan;100109.78;4980432;28;20030;-64
2024/01/01 04:23:14;;;;;;;29.70;15.02;;;;;;;1.72;nan;100106.81;4995646;28;20033;-66
2024/01/01 04:25:39;;;;;;;30.58;15.25;;;;;;;1.66;nan;100098.75;4998947;28;20030;-66
2024/01/01 04:28:05;;;;;;;33.88;16.05;;;;;;;1.67;nan;100092.56;4999939;28;20038;-65
2024/01/01 04:30:30;;;;;;;34.28;15.65;;;;;;;1.86;nan;100103.47;4995756;28;20044;-66
2024/01/01 04:32:56;;;;;;;36.05;16.20;;;;;;;1.82;nan;100089.22;4997061;28;20325;-66
2024/01/01 04:35:21;;;;;;;32.63;14.85;;;;;;;1.93;nan;100104.38;4985072;28;21114;-65
2024/01/01 04:37:48;;;;;;;31.98;14.90;;;;;;;1.89;nan;100105.69;5000827;28;20046;-65
2024/01/01 04:40:13;;;;;;;31.58;15.73;;;;;;;1.87;nan;100105.88;5004509;28;20494;-66
2024/01/01 04:42:39;;;;;;;28.95;15.13;;;;;;;1.86;nan;100098.28;4999853;28;20026;-65
2024/01/01 04:45:04;;;;;;;28.15;14.88;;;;;;;1.70;nan;100076.66;4997893;28;20030;-65
2024/01/01 04:47:30;;;;;;;31.05;15.30;;;;;;;1.78;nan;100087.97;4997853;28;20053;-65
2024/01/01 04:49:55;;;;;;;32.28;14.93;;;;;;;1.89;nan;100100.50;4979470;28;20040;-66
2024/01/01 04:52:21;;;;;;;34.22;16.17;;;;;;;1.88;nan;100104.91;4999965;28;20038;-66
2024/01/01 04:54:46;;;;;;;29.98;15.45;;;;;;;1.88;nan;100086.72;4999685;28;20026;-66
2024/01/01 04:57:12;;;;;;;29.75;15.30;;;;;;;1.89;nan;100088.34;5000277;28;20045;-66
2024/01/01 04:59:38;;;;;;;28.90;14.60;;;;;;;1.91;nan;100094.16;5000847;28;20561;-65
2024/01/01 05:02:03;;;;;;;28.33;14.52;;;;;;;1.86;nan;100086.09;4996154;28;20026;-65
2024/01/01 05:04:28;;;;;;;31.30;14.88;;;;;;;1.83;nan;100089.03;5000360;28;20017;-64
2024/01/01 05:06:54;;;;;;;31.45;14.45;;;;;;;1.82;nan;100091.81;4997683;28;20034;-64
2024/01/01 05:09:20;;;;;;;30.80;15.57;;;;;;;1.90;nan;100100.34;4998981;28;20234;-64
2024/01/01 05:11:45;;;;;;;28.52;15.88;;;;;;;1.91;nan;100106.34;4998619;28;20439;-65
2024/01/01 05:14:11;;;;;;;28.42;15.32;;;;;;;1.92;nan;100093.19;4995720;28;20026;-66
2024/01/01 05:16:36;;;;;;;29.58;14.68;;;;;;;1.90;nan;100091.75;4996013;28;20142;-64
2024/01/01 05:19:02;;;;;;;26.48;14.30;;;;;;;1.88;nan;100088.53;4995836;28;20036;-65
2024/01/01 05:21:28;;;;;;;29.50;14.45;;;;;;;1.78;nan;100078.38;4999144;28;20480;-64
2024/01/01 05:23:53;;;;;;;31.88;14.82;;;;;;;1.83;nan;100083.06;4998527;28;20033;-64
2024/01/01 05:26:19;;;;;;;27.75;14.35;;;;;;;1.84;nan;100082.06;4994582;28;20038;-64
2024/01/01 05:28:44;;;;;;;26.35;13.75;;;;;;;1.88;nan;100081.53;4997016;28;20030;-64
2024/01/01 05:31:10;;;;;;;26.50;13.98;;;;;;;1.87;nan;100064.34;4997759;28;20023;-65
2024/01/01 05:33:38;;;;;;;31.30;14.43;;;;;;;1.90;nan;100069.19;4996916;28;20059;-65
2024/01/01 05:36:11;;;;;;;26.40;14.00;;;;;;;1.88;nan;100054.78;4998828;28;20519;-65
2024/01/01 05:38:37;;;;;;;28.75;15.00;;;;;;;1.90;nan;100045.81;4994899;28;20030;-65
2024/01/01 05:41:02;;;;;;;28.83;15.27;;;;;;;1.91;nan;100042.22;5000926;28;20049;-64
2024/01/01 05:43:27;;;;;;;30.27;14.75;;;;;;;1.96;nan;100046.88;4995254;28;20058;-65
2024/01/01 05:45:53;;;;;;;28.27;13.93;;;;;;;1.94;nan;100035.06;4998652;28;20038;-65
2024/01/01 05:48:18;;;;;;;31.58;15.38;;;;;;;1.78;nan;100010.09;4997012;28;20050;-65
2024/01/01 05:50:44;;;;;;;31.13;14.60;;;;;;;2.00;nan;100034.38;5002306;28;20386;-65
2024/01/01 05:53:09;;;;;;;29.17;14.20;;;;;;;2.09;nan;100028.91;5000820;28;20019;-66
2024/01/01 05:55:34;;;;;;;27.05;13.90;;;;;;;2.07;nan;100023.09;5002500;28;20483;-66
2024/01/01 05:58:00;;;;;;;27.25;12.48;;;;;;;2.07;nan;100011.91;4997456;28;20403;-65
2024/01/01 06:00:26;;;;;;;26.20;12.52;;;;;;;2.13;nan;100018.97;4998332;28;20026;-65
2024/01/01 06:02:51;;;;;;;24.60;12.50;;;;;;;2.16;nan;100016.03;4995115;28;20038;-65
2024/01/01 06:05:17;;;;;;;24.33;12.38;;;;;;;2.24;nan;100030.72;4986186;28;20030;-65
2024/01/01 06:07:42;;;;;;;23.10;12.68;;;;;;;2.15;nan;100008.41;4977997;28;20030;-65
2024/01/01 06:10:08;;;;;;;25.63;12.55;;;;;;;2.25;nan;100017.56;4994240;28;20034;-65
2024/01/01 06:12:34;;;;;;;21.60;11.70;;;;;;;2.36;nan;100023.28;4995690;28;20803;-64
2024/01/01 06:14:59;;;;;;;22.50;12.30;;;;;;;2.28;nan;100008.59;4997654;28;20034;-65
2024/01/01 06:17:25;;;;;;;25.48;12.15;;;;;;;2.42;nan;100025.13;4997101;28;20038;-65
2024/01/01 06:19:50;;;;;;;24.70;12.70;;;;;;;2.22;nan;99991.91;4996711;28;20025;-65
2024/01/01 06:22:16;;;;;;;24.48;13.10;;;;;;;2.43;nan;100024.97;4995157;28;20149;-66
2024/01/01 06:24:42;;;;;;;27.15;12.27;;;;;;;2.45;nan;100027.38;4997400;28;20033;-66
2024/01/01 06:27:07;;;;;;;22.27;11.93;;;;;;;2.38;nan;100014.31;4979612;28;20412;-65
2024/01/01 06:29:32;;;;;;;24.10;11.77;;;;;;;2.49;nan;100029.44;4997672;28;20370;-65
2024/01/01 06:31:58;;;;;;;24.23;12.30;;;;;;;2.53;nan;100027.28;4981238;28;20030;-65
2024/01/01 06:34:23;;;;;;;22.40;11.77;;;;;;;2.51;nan;100022.28;4979741;28;20049;-65
2024/01/01 06:36:49;;;;;;;26.77;12.25;;;;;;;2.51;nan;100019.69;5000348;28;20145;-65
2024/01/01 06:39:14;;;;;;;23.38;12.65;;;;;;;2.60;nan;100030.75;4985606;28;20125;-65
2024/01/01 06:41:40;;;;;;;21.48;11.82;;;;;;;2.55;nan;100023.50;4994864;28;20042;-65
2024/01/01 06:44:05;;;;;;;22.50;11.50;;;;;;;2.71;nan;100037.31;4998694;28;20434;-66
2024/01/01 06:46:31;;;;;;;23.23;11.63;;;;;;;2.55;nan;100015.72;4996837;28;20065;-65
2024/01/01 06:48:56;;;;;;;22.15;11.50;;;;;;;2.82;nan;100038.63;4995952;28;20027;-65
2024/01/01 06:51:22;;;;;;;22.00;11.82;;;;;;;2.84;nan;100041.84;4996484;28;20550;-65
2024/01/01 06:53:47;;;;;;;19.15;11.15;;;;;;;2.85;nan;100036.47;4996412;28;20442;-65
2024/01/01 06:56:13;;;;;;;19.33;10.80;;;;;;;2.85;nan;100020.03;4999070;28;20022;-66
2024/01/01 06:58:38;;;;;;;22.88;11.25;;;;;;;2.94;nan;100026.75;4981329;28;20053;-65
2024/01/01 07:01:04;;;;;;;21.92;11.20;;;;;;;3.05;nan;100025.47;4995704;28;20592;-64
2024/01/01 07:03:29;;;;;;;23.20;11.23;;;;;;;3.09;nan;100024.09;4997097;28;20476;-65
2024/01/01 07:05:55;;;;;;;21.63;11.77;;;;;;;3.05;nan;100012.47;4997958;28;20102;-66
2024/01/01 07:08:21;;;;;;;26.10;11.68;;;;;;;3.21;nan;100038.25;4997683;28;20483;-65
2024/01/01 07:10:48;;;;;;;23.38;11.70;;;;;;;3.25;nan;100020.44;4997427;28;20032;-65
2024/01/01 07:13:13;;;;;;;26.27;12.32;;;;;;;3.26;nan;100007.25;4996415;28;20021;-65
2024/01/01 07:15:39;;;;;;;29.17;14.38;;;;;;;3.38;nan;100013.56;5000249;28;20018;-64
2024/01/01 07:18:05;;;;;;;37.53;20.50;;;;;;;3.45;nan;100011.03;4998062;28;20042;-65
2024/01/01 07:20:30;;;;;;;43.88;24.02;;;;;;;3.56;nan;100015.72;4990393;28;20027;-64
2024/01/01 07:22:56;;;;;;;41.33;23.20;;;;;;;3.57;nan;100006.13;4996402;28;20025;-65
2024/01/01 07:25:21;;;;;;;42.65;20.65;;;;;;;3.67;nan;100009.19;4999997;28;20033;-64
2024/01/01 07:27:46;;;;;;;31.40;16.70;;;;;;;3.69;nan;100009.81;5000234;28;20080;-65
2024/01/01 07:30:12;;;;;;;23.42;13.45;;;;;;;3.76;nan;100007.22;4999499;28;20077;-67
2024/01/01 07:32:38;;;;;;;23.75;13.13;;;;;;;3.86;nan;100005.13;5001839;28;20030;-64
2024/01/01 07:35:03;;;;;;;20.58;11.15;;;;;;;3.82;nan;99991.66;4996883;28;20105;-65
2024/01/01 07:37:29;;;;;;;21.42;10.88;;;;;;;3.95;nan;99995.34;5000630;28;20060;-66
2024/01/01 07:39:54;;;;;;;30.48;12.73;;;;;;;4.01;nan;99995.38;5000829;28;20500;-66
2024/01/01 07:42:20;;;;;;;36.00;17.30;;;;;;;4.21;nan;99997.28;4984767;28;20038;-66
2024/01/01 07:44:45;;;;;;;38.28;17.17;;;;;;;4.41;nan;100003.41;5002424;28;20377;-66
2024/01/01 07:47:11;;;;;;;34.28;15.65;;;;;;;4.48;nan;99980.00;5000130;28;20141;-65
2024/01/01 07:49:36;;;;;;;34.28;15.65;;;;;;;4.62;nan;99981.63;4999773;28;20081;-64
2024/01/01 07:52:01;;;;;;;35.47;16.08;;;;;;;4.83;nan;100000.75;5002623;28;20664;-65
2024/01/01 07:54:27;;;;;;;40.05;17.25;;;;;;;4.88;nan;99987.91;4993380;28;20687;-65
2024/01/01 07:56:54;;;;;;;36.75;15.07;;;;;;;4.92;nan;99972.69;5002916;28;20369;-65
2024/01/01 07:59:19;;;;;;;22.98;11.27;;;;;;;5.15;nan;99983.56;5001611;28;20041;-65
2024/01/01 08:01:45;;;;;;;19.50;10.75;;;;;;;5.25;nan;99983.16;5001582;28;20030;-65
2024/01/01 08:04:11;;;;;;;19.05;9.68;;;;;;;5.37;nan;99980.75;5001445;28;20041;-64
2024/01/01 08:06:37;;;;;;;20.65;10.25;;;;;;;5.35;nan;99967.88;5001617;28;20030;-65
2024/01/01 08:09:02;;;;;;;19.95;10.73;;;;;;;5.55;nan;99975.72;5002445;28;20037;-65
2024/01/01 08:11:28;;;;;;;21.27;10.68;;;;;;;5.63;nan;99980.75;5002411;28;20036;-65
2024/01/01 08:13:53;;;;;;;15.38;9.30;;;;;;;5.73;nan;99986.34;5004064;28;20049;-65
2024/01/01 08:16:19;;;;;;;19.38;10.25;;;;;;;5.81;nan;99981.91;5000351;28;20029;-65
2024/01/01 08:18:48;;;;;;;19.25;10.50;;;;;;;5.82;nan;99973.88;4982773;28;20030;-65
2024/01/01 08:21:13;;;;;;;24.00;11.93;;;;;;;5.96;nan;99978.09;4999898;28;20048;-65
2024/01/01 08:23:39;;;;;;;25.55;12.05;;;;;;;6.02;nan;99973.06;4983956;28;20026;-64
2024/01/01 08:26:05;;;;;;;25.33;11.52;;;;;;;6.16;nan;99988.50;4996744;28;20132;-64
2024/01/01 08:28:32;;;;;;;19.85;9.80;;;;;;;6.24;nan;99981.44;5000365;28;20014;-65
2024/01/01 08:30:58;;;;;;;16.85;9.63;;;;;;;6.39;nan;99984.59;5000079;28;20061;-65
2024/01/01 08:33:24;;;;;;;18.63;9.68;;;;;;;6.36;nan;99964.09;4999039;28;20068;-64
2024/01/01 08:35:53;;;;;;;18.42;10.23;;;;;;;6.55;nan;99991.16;4999581;28;20077;-64
2024/01/01 08:38:18;;;;;;;17.90;9.48;;;;;;;6.59;nan;99987.13;5005762;28;20025;-64
2024/01/01 08:40:44;;;;;;;17.65;9.82;;;;;;;6.55;nan;99955.34;5000396;28;20057;-64
2024/01/01 08:43:09;;;;;;;19.30;9.55;;;;;;;6.64;nan;99962.97;4984059;28;20544;-64
2024/01/01 08:45:35;;;;;;;21.65;10.70;;;;;;;6.75;nan;99973.56;5000028;28;20413;-64
2024/01/01 08:48:00;;;;;;;19.88;9.55;;;;;;;6.80;nan;99965.88;5000714;28;20062;-64
2024/01/01 08:50:26;;;;;;;16.40;9.43;;;;;;;6.95;nan;99972.66;4999828;28;20042;-65
2024/01/01 08:52:51;;;;;;;19.00;9.40;;;;;;;7.04;nan;99974.00;5002045;28;20073;-65
2024/01/01 08:55:17;;;;;;;18.92;9.82;;;;;;;7.19;nan;99978.94;5001637;28;20645;-65
2024/01/01 08:57:42;;;;;;;16.80;9.82;;;;;;;7.21;nan;99961.19;4997167;28;20033;-64
2024/01/01 09:00:08;;;;;;;20.38;10.50;;;;;;;7.33;nan;99963.91;4991338;28;20034;-64
2024/01/01 09:02:34;;;;;;;20.63;10.52;;;;;;;7.43;nan;99991.22;4996623;28;20034;-64
2024/01/01 09:04:59;;;;;;;14.48;8.57;;;;;;;7.49;nan;99986.13;4999487;28;20087;-64
2024/01/01 09:07:24;;;;;;;14.82;8.45;;;;;;;7.57;nan;99965.72;4999696;28;20104;-65
2024/01/01 09:09:50;;;;;;;13.90;8.55;;;;;;;7.57;nan;99949.19;4999138;28;20026;-64
2024/01/01 09:12:15;;;;;;;14.43;8.40;;;;;;;7.65;nan;99954.94;4995700;28;20033;-64
2024/01/01 09:14:41;;;;;;;15.85;8.63;;;;;;;7.73;nan;99958.31;5001049;28;20034;-66
2024/01/01 09:17:07;;;;;;;14.77;8.25;;;;;;;7.84;nan;99947.13;4998406;28;20153;-64
2024/01/01 09:19:33;;;;;;;15.90;8.40;;;;;;;7.85;nan;99952.16;4990343;28;20125;-64
2024/01/01 09:22:00;;;;;;;16.23;8.10;;;;;;;7.95;nan;99953.44;4996237;28;20410;-64
2024/01/01 09:24:26;;;;;;;17.05;8.88;;;;;;;8.04;nan;99958.16;4997433;28;20053;-64
2024/01/01 09:26:51;;;;;;;17.33;8.90;;;;;;;8.10;nan;99941.56;4985966;28;20107;-65
2024/01/01 09:29:17;;;;;;;18.75;8.80;;;;;;;8.18;nan;99940.47;5002290;28;20058;-65
2024/01/01 09:31:42;;;;;;;16.27;8.25;;;;;;;8.15;nan;99919.94;5004382;28;20034;-65
2024/01/01 09:34:07;;;;;;;15.95;8.52;;;;;;;8.26;nan;99937.56;4996214;28;20033;-65
2024/01/01 09:36:34;;;;;;;18.48;9.10;;;;;;;8.27;nan;99928.66;4997983;28;20037;-64
2024/01/01 09:38:59;;;;;;;15.85;9.10;;;;;;;8.37;nan;99943.88;5001102;28;20156;-63
2024/01/01 09:41:26;;;;;;;16.42;8.77;;;;;;;8.38;nan;99913.19;4999622;28;20145;-63
2024/01/01 09:43:53;;;;;;;13.32;8.07;;;;;;;8.47;nan;99927.63;4998502;28;20025;-65
2024/01/01 09:46:20;;;;;;;17.70;8.45;;;;;;;8.44;nan;99913.13;4996175;28;20479;-66
2024/01/01 09:48:45;;;;;;;15.63;8.00;;;;;;;8.26;nan;99879.84;4983898;28;20488;-63
2024/01/01 09:51:11;;;;;;;12.75;8.27;;;;;;;8.59;nan;99915.34;4999040;28;20051;-66
2024/01/01 09:53:37;;;;;;;15.55;8.48;;;;;;;8.56;nan;99907.13;5000211;28;20032;-64
2024/01/01 09:56:03;;;;;;;15.63;8.57;;;;;;;8.67;nan;99912.41;4997511;28;20075;-66
2024/01/01 09:58:28;;;;;;;18.02;8.07;;;;;;;8.68;nan;99914.00;4999445;28;20030;-65
2024/01/01 10:01:09;;;;;;;14.43;8.45;;;;;;;8.60;nan;99895.97;4999308;28;20030;-65
2024/01/01 10:03:34;;;;;;;11.75;8.02;;;;;;;8.76;nan;99912.88;4999151;28;20046;-65
2024/01/01 10:06:07;;;;;;;13.45;7.82;;;;;;;8.68;nan;99906.13;4996356;28;20057;-64
2024/01/01 10:08:34;;;;;;;16.95;8.05;;;;;;;8.79;nan;99916.88;4994518;28;20396;-64
2024/01/01 10:11:16;;;;;;;14.32;8.07;;;;;;;8.66;nan;99899.50;5001071;28;20021;-66
2024/01/01 10:13:42;;;;;;;15.35;8.40;;;;;;;8.72;nan;99909.91;4999541;28;20251;-65
2024/01/01 10:16:07;;;;;;;13.48;7.75;;;;;;;8.81;nan;99918.28;5001623;28;20165;-65
2024/01/01 10:18:33;;;;;;;16.20;8.45;;;;;;;8.82;nan;99917.25;5001160;28;20026;-64
2024/01/01 10:21:12;;;;;;;15.57;8.48;;;;;;;8.86;nan;99914.97;4987149;28;20095;-64
2024/01/01 10:23:38;;;;;;;11.45;7.07;;;;;;;8.79;nan;99904.56;4997108;28;20404;-64
2024/01/01 10:26:09;;;;;;;12.70;7.80;;;;;;;8.85;nan;99905.50;5000935;28;20041;-65
2024/01/01 10:28:35;;;;;;;14.43;7.88;;;;;;;8.93;nan;99931.41;5000109;28;20030;-66
2024/01/01 10:31:02;;;;;;;17.17;8.57;;;;;;;8.94;nan;99936.44;5000048;28;20030;-64
2024/01/01 10:33:29;;;;;;;14.43;8.90;;;;;;;8.94;nan;99951.41;4990562;28;20018;-66
2024/01/01 10:35:58;;;;;;;17.70;8.40;;;;;;;8.92;nan;99977.09;4999850;28;20038;-65
2024/01/01 10:38:25;;;;;;;16.73;8.95;;;;;;;8.87;nan;99975.13;4997287;28;20058;-66
2024/01/01 10:40:55;;;;;;;18.10;9.18;;;;;;;8.93;nan;100004.94;5002190;28;20046;-65
2024/01/01 10:43:22;;;;;;;;;;;;;;;8.92;nan;100006.78;4983442;28;20026;-65
2024/01/01 10:45:48;;;;;;;18.75;9.43;;;;;;;8.91;nan;100007.00;4993163;28;19921;-66
2024/01/01 10:48:15;;;;;;;17.67;10.40;;;;;;;8.89;nan;100001.19;4995776;28;20034;-65
2024/01/01 10:50:54;;;;;;;17.23;10.30;;;;;;;7.97;nan;99862.25;5000953;28;20032;-64
2024/01/01 10:53:39;;;;;;;20.58;11.27;;;;;;;8.85;nan;100003.44;4982049;28;20034;-65
2024/01/01 10:56:21;;;;;;;18.55;10.63;;;;;;;8.85;nan;100007.88;4996291;28;20081;-65
2024/01/01 10:59:25;;;;;;;20.83;11.27;;;;;;;8.87;nan;100017.13;4996969;28;20551;-64
2024/01/01 11:01:52;;;;;;;30.63;12.90;;;;;;;8.78;nan;100007.97;4996468;28;20601;-64
2024/01/01 11:04:22;;;;;;;22.27;12.43;;;;;;;8.87;nan;100022.41;4985894;28;20018;-66
2024/01/01 11:06:47;;;;;;;;;;;;;;;8.87;nan;100025.03;5001751;28;20046;-65
2024/01/01 11:09:19;;;;;;;23.45;11.55;;;;;;;8.87;nan;100032.91;5003664;28;19913;-64
2024/01/01 11:11:49;;;;;;;22.10;11.90;;;;;;;8.85;nan;100031.53;4990635;28;20092;-65
2024/01/01 11:14:23;;;;;;;23.95;12.80;;;;;;;8.88;nan;100024.00;5003303;28;20036;-65
2024/01/01 11:16:50;;;;;;;19.25;11.27;;;;;;;8.90;nan;100026.41;5010030;28;20038;-66
2024/01/01 11:19:37;;;;;;;19.40;12.20;;;;;;;8.90;nan;100036.91;5009747;28;20563;-66
2024/01/01 11:22:18;;;;;;;29.90;16.40;;;;;;;8.89;nan;100028.22;5003262;28;20034;-66
2024/01/01 11:24:45;;;;;;;21.73;13.07;;;;;;;8.90;nan;100029.03;5005941;28;20030;-69
2024/01/01 11:27:22;;;;;;;20.75;13.10;;;;;;;8.80;nan;100013.81;5005476;28;20027;-66
2024/01/01 11:29:47;;;;;;;23.88;13.27;;;;;;;8.82;nan;100024.09;5003205;28;20050;-69
2024/01/01 11:32:17;;;;;;;22.00;12.90;;;;;;;8.79;nan;100027.16;5005925;28;20056;-65
2024/01/01 11:34:42;;;;;;;22.92;13.75;;;;;;;8.76;nan;100025.75;4999937;28;20045;-66